createdAt,value
2022-11-23T00:00:52.716Z,98437.84
2022-11-23T00:03:45.240Z,98434.06
2022-11-23T00:06:25.379Z,98435.59
2022-11-23T00:09:17.957Z,98424.13
2022-11-23T00:11:57.488Z,98432.16
2022-11-23T00:14:52.696Z,98428.06
2022-11-23T00:17:35.029Z,98433.81
2022-11-23T00:20:23.236Z,98443.66
2022-11-23T00:22:51.090Z,98433.97
2022-11-23T00:25:18.874Z,98437.66
2022-11-23T00:28:03.961Z,98438.37
2022-11-23T00:30:54.950Z,98432.88
2022-11-23T00:33:38.694Z,98433.63
2022-11-23T00:36:10.675Z,98431.63
2022-11-23T00:38:38.768Z,98431.00
2022-11-23T00:41:14.255Z,98425.88
2022-11-23T00:43:43.434Z,98429.91
2022-11-23T00:46:21.078Z,98423.72
2022-11-23T00:48:50.966Z,98431.09
2022-11-23T00:51:29.823Z,98432.72
2022-11-23T00:53:57.769Z,98433.47
2022-11-23T00:56:51.783Z,98430.44
2022-11-23T00:59:26.973Z,98428.91
2022-11-23T01:02:20.767Z,98414.63
2022-11-23T01:04:50.251Z,98424.91
2022-11-23T01:07:41.876Z,98427.50
2022-11-23T01:10:23.855Z,98421.69
2022-11-23T01:12:52.165Z,98425.84
2022-11-23T01:15:19.799Z,98411.62
2022-11-23T01:17:47.490Z,98422.28
2022-11-23T01:20:15.851Z,98420.00
2022-11-23T01:22:43.517Z,98413.06
2022-11-23T01:25:11.179Z,98414.31
2022-11-23T01:27:52.915Z,98403.97
2022-11-23T01:30:44.885Z,98408.87
2022-11-23T01:33:39.747Z,98392.56
2022-11-23T01:36:32.895Z,98392.47
2022-11-23T01:39:12.922Z,98398.50
2022-11-23T01:41:54.865Z,98399.91
2022-11-23T01:44:48.777Z,98393.69
2022-11-23T01:47:28.205Z,98375.88
2022-11-23T01:50:18.881Z,98396.03
2022-11-23T01:52:58.430Z,98387.78
2022-11-23T01:55:51.679Z,98388.09
2022-11-23T01:58:22.873Z,98374.66
2022-11-23T02:00:51.804Z,98387.47
2022-11-23T02:03:20.061Z,98386.47
2022-11-23T02:05:52.601Z,98382.34
2022-11-23T02:08:25.741Z,98375.25
2022-11-23T02:10:56.190Z,98381.59
2022-11-23T02:13:48.430Z,98386.63
2022-11-23T02:16:18.323Z,98381.25
2022-11-23T02:18:49.688Z,98384.59
2022-11-23T02:21:37.146Z,98373.88
2022-11-23T02:24:23.909Z,98379.34
2022-11-23T02:26:52.077Z,98381.72
2022-11-23T02:29:44.598Z,98384.63
2022-11-23T02:32:38.956Z,98385.09
2022-11-23T02:35:29.906Z,98385.91
2022-11-23T02:38:09.691Z,98378.84
2022-11-23T02:41:04.163Z,98383.22
2022-11-23T02:43:32.322Z,98379.09
2022-11-23T02:46:02.199Z,98385.97
2022-11-23T02:48:30.200Z,98367.50
2022-11-23T02:50:57.821Z,98369.91
2022-11-23T02:53:45.203Z,98361.94
2022-11-23T02:56:53.952Z,98369.78
2022-11-23T02:59:24.558Z,98387.31
2022-11-23T03:01:59.184Z,98379.75
2022-11-23T03:05:02.286Z,98374.81
2022-11-23T03:07:30.284Z,98385.75
2022-11-23T03:09:58.824Z,98370.63
2022-11-23T03:12:27.347Z,98380.94
2022-11-23T03:15:15.680Z,98374.59
2022-11-23T03:17:43.481Z,98365.09
2022-11-23T03:20:34.953Z,98368.44
2022-11-23T03:23:25.907Z,98376.53
2022-11-23T03:26:17.917Z,98382.16
2022-11-23T03:29:09.889Z,98377.53
2022-11-23T03:32:01.307Z,98378.66
2022-11-23T03:34:52.990Z,98365.88
2022-11-23T03:37:44.045Z,98374.94
2022-11-23T03:40:12.653Z,98373.88
2022-11-23T03:43:07.804Z,98365.03
2022-11-23T03:45:59.091Z,98378.22
2022-11-23T03:48:52.710Z,98372.63
2022-11-23T03:51:46.669Z,98367.38
2022-11-23T03:54:42.242Z,98383.63
2022-11-23T03:57:38.147Z,98377.44
2022-11-23T04:00:38.003Z,98382.06
2022-11-23T04:03:06.792Z,98376.91
2022-11-23T04:05:52.013Z,98379.75
2022-11-23T04:08:21.733Z,98367.16
2022-11-23T04:10:49.635Z,98365.56
2022-11-23T04:13:18.047Z,98385.63
2022-11-23T04:15:49.067Z,98372.41
2022-11-23T04:18:16.698Z,98373.59
2022-11-23T04:20:46.909Z,98391.41
2022-11-23T04:23:27.894Z,98373.16
2022-11-23T04:26:33.662Z,98374.09
2022-11-23T04:29:04.034Z,98380.50
2022-11-23T04:31:36.909Z,98385.19
2022-11-23T04:34:06.548Z,98378.13
2022-11-23T04:36:35.382Z,98380.66
2022-11-23T04:39:04.617Z,98384.41
2022-11-23T04:41:35.171Z,98377.69
2022-11-23T04:44:24.542Z,98382.31
2022-11-23T04:46:57.914Z,98372.63
2022-11-23T04:49:38.928Z,98400.25
2022-11-23T04:52:29.384Z,98374.84
2022-11-23T04:55:19.180Z,98379.44
2022-11-23T04:57:48.910Z,98394.25
2022-11-23T05:00:59.164Z,98381.97
2022-11-23T05:03:28.352Z,98380.94
2022-11-23T05:05:59.912Z,98377.75
2022-11-23T05:08:30.206Z,98388.41
2022-11-23T05:11:23.886Z,98404.19
2022-11-23T05:14:15.259Z,98388.25
2022-11-23T05:17:10.009Z,98384.78
2022-11-23T05:20:01.077Z,98383.16
2022-11-23T05:22:50.280Z,98391.00
2022-11-23T05:25:47.972Z,98389.72
2022-11-23T05:28:40.141Z,98391.72
2022-11-23T05:31:12.292Z,98376.41
2022-11-23T05:33:41.253Z,98377.00
2022-11-23T05:36:39.579Z,98378.81
2022-11-23T05:39:27.358Z,98371.03
2022-11-23T05:42:10.918Z,98375.16
2022-11-23T05:44:43.198Z,98374.84
2022-11-23T05:47:11.960Z,98379.53
2022-11-23T05:49:55.662Z,98367.59
2022-11-23T05:52:26.349Z,98376.63
2022-11-23T05:54:59.029Z,98380.25
2022-11-23T05:57:29.659Z,98374.31
2022-11-23T06:00:03.284Z,98380.69
2022-11-23T06:02:41.225Z,98376.94
2022-11-23T06:05:12.501Z,98376.50
2022-11-23T06:07:43.946Z,98372.63
2022-11-23T06:10:18.331Z,98388.59
2022-11-23T06:12:47.364Z,98391.91
2022-11-23T06:15:17.078Z,98398.94
2022-11-23T06:17:45.888Z,98400.09
2022-11-23T06:20:14.289Z,98388.84
2022-11-23T06:22:44.194Z,98395.06
2022-11-23T06:25:12.937Z,98402.44
2022-11-23T06:27:55.999Z,98397.62
2022-11-23T06:30:32.922Z,98397.25
2022-11-23T06:33:04.855Z,98402.81
2022-11-23T06:35:35.807Z,98402.91
2022-11-23T06:38:05.552Z,98406.47
2022-11-23T06:40:34.247Z,98406.13
2022-11-23T06:43:04.647Z,98409.72
2022-11-23T06:45:41.320Z,98409.63
2022-11-23T06:48:45.496Z,98404.66
2022-11-23T06:51:37.128Z,98403.09
2022-11-23T06:54:27.210Z,98406.44
2022-11-23T06:57:11.025Z,98407.63
2022-11-23T06:59:44.539Z,98404.72
2022-11-23T07:02:36.673Z,98409.50
2022-11-23T07:05:07.603Z,98417.28
2022-11-23T07:07:54.866Z,98414.97
2022-11-23T07:11:03.885Z,98413.50
2022-11-23T07:14:06.061Z,98410.78
2022-11-23T07:16:39.927Z,98420.84
2022-11-23T07:19:10.969Z,98413.50
2022-11-23T07:21:39.596Z,98413.47
2022-11-23T07:24:21.864Z,98417.25
2022-11-23T07:26:57.944Z,98416.44
2022-11-23T07:29:27.159Z,98421.50
2022-11-23T07:31:57.900Z,98426.84
2022-11-23T07:34:52.856Z,98421.88
2022-11-23T07:37:38.106Z,98435.97
2022-11-23T07:40:19.623Z,98434.47
2022-11-23T07:43:03.562Z,98436.47
2022-11-23T07:45:34.538Z,98434.88
2022-11-23T07:48:25.696Z,98441.75
2022-11-23T07:51:32.216Z,98439.25
2022-11-23T07:54:06.065Z,98444.50
2022-11-23T07:56:39.830Z,98441.34
2022-11-23T07:59:23.933Z,98446.03
2022-11-23T08:01:58.353Z,98446.94
2022-11-23T08:04:34.215Z,98456.66
2022-11-23T08:07:04.998Z,98457.72
2022-11-23T08:09:35.115Z,98454.00
2022-11-23T08:12:16.370Z,98458.34
2022-11-23T08:14:58.974Z,98459.63
2022-11-23T08:17:41.017Z,98445.34
2022-11-23T08:20:14.320Z,98452.84
2022-11-23T08:22:46.281Z,98453.53
2022-11-23T08:25:17.025Z,98454.75
2022-11-23T08:27:44.982Z,98454.25
2022-11-23T08:30:16.011Z,98459.84
2022-11-23T08:32:45.533Z,98457.00
2022-11-23T08:35:23.733Z,98447.31
2022-11-23T08:37:51.898Z,98440.66
2022-11-23T08:40:25.819Z,98447.13
2022-11-23T08:43:00.968Z,98450.16
2022-11-23T08:45:31.335Z,98454.31
2022-11-23T08:48:04.883Z,98458.38
2022-11-23T08:50:35.660Z,98462.63
2022-11-23T08:53:06.427Z,98463.09
2022-11-23T08:55:38.035Z,98464.66
2022-11-23T08:58:13.402Z,98457.81
2022-11-23T09:00:43.391Z,98463.44
2022-11-23T09:03:12.843Z,98460.03
2022-11-23T09:05:40.928Z,98466.69
2022-11-23T09:08:09.633Z,98459.34
2022-11-23T09:13:15.061Z,98474.25
2022-11-23T09:15:44.477Z,98472.03
2022-11-23T09:18:12.549Z,98480.56
2022-11-23T09:20:40.600Z,98477.69
2022-11-23T09:23:14.065Z,98471.69
2022-11-23T09:25:48.643Z,98478.69
2022-11-23T09:28:19.769Z,98478.66
2022-11-23T09:30:48.712Z,98469.28
2022-11-23T09:33:26.359Z,98470.91
2022-11-23T09:36:02.748Z,98471.19
2022-11-23T09:38:55.534Z,98468.66
2022-11-23T09:41:23.696Z,98474.19
2022-11-23T09:44:03.939Z,98467.84
2022-11-23T09:46:51.557Z,98465.28
2022-11-23T09:49:32.995Z,98464.84
2022-11-23T09:52:03.231Z,98458.50
2022-11-23T09:57:17.093Z,98464.53
2022-11-23T09:59:53.441Z,98461.41
2022-11-23T10:02:24.059Z,98451.63
2022-11-23T10:04:53.828Z,98450.91
2022-11-23T10:07:35.483Z,98458.78
2022-11-23T10:10:13.052Z,98454.88
2022-11-23T10:12:46.049Z,98456.38
2022-11-23T10:15:58.925Z,98457.16
2022-11-23T10:18:55.416Z,98465.00
2022-11-23T10:21:48.472Z,98459.25
2022-11-23T10:24:44.698Z,98450.94
2022-11-23T10:27:20.025Z,98455.84
2022-11-23T10:29:49.728Z,98451.00
2022-11-23T10:32:41.038Z,98458.25
2022-11-23T10:35:28.355Z,98442.97
2022-11-23T10:38:18.704Z,98446.84
2022-11-23T10:41:04.860Z,98440.09
2022-11-23T10:43:48.975Z,98444.50
2022-11-23T10:46:29.914Z,98449.06
2022-11-23T10:49:21.842Z,98440.94
2022-11-23T10:52:33.030Z,98450.09
2022-11-23T10:55:05.897Z,98449.75
2022-11-23T10:57:43.684Z,98443.12
2022-11-23T11:00:30.259Z,98442.75
2022-11-23T11:03:23.127Z,98439.69
2022-11-23T11:06:09.484Z,98445.69
2022-11-23T11:09:06.439Z,98444.69
2022-11-23T11:11:39.530Z,98438.25
2022-11-23T11:14:23.697Z,98441.56
2022-11-23T11:17:27.202Z,98444.66
2022-11-23T11:20:34.916Z,98442.97
2022-11-23T11:23:05.439Z,98440.09
2022-11-23T11:25:37.673Z,98429.69
2022-11-23T11:28:18.993Z,98423.66
2022-11-23T11:31:39.467Z,98437.72
2022-11-23T11:34:21.869Z,98439.84
2022-11-23T11:37:10.780Z,98441.62
2022-11-23T11:39:50.773Z,98444.50
2022-11-23T11:46:13.639Z,98436.00
2022-11-23T11:48:57.453Z,98438.56
2022-11-23T11:51:43.630Z,98444.03
2022-11-23T11:55:02.902Z,98450.97
2022-11-23T11:57:46.767Z,98449.94
2022-11-23T12:00:44.841Z,98455.09
2022-11-23T12:03:51.086Z,98454.34
2022-11-23T12:06:40.349Z,98460.28
2022-11-23T12:09:35.309Z,98460.97
2022-11-23T12:12:30.517Z,98451.16
2022-11-23T12:15:47.270Z,98456.63
2022-11-23T12:18:18.745Z,98454.84
2022-11-23T12:21:30.267Z,98453.47
2022-11-23T12:24:43.338Z,98450.47
2022-11-23T12:28:04.385Z,98449.34
2022-11-23T12:30:36.387Z,98446.87
2022-11-23T12:33:21.867Z,98439.09
2022-11-23T12:36:27.098Z,98436.72
2022-11-23T12:39:54.762Z,98440.22
2022-11-23T12:43:09.120Z,98440.00
2022-11-23T12:46:00.889Z,98437.56
2022-11-23T12:48:53.460Z,98441.25
2022-11-23T12:52:27.748Z,98438.94
2022-11-23T12:55:24.828Z,98443.38
2022-11-23T13:02:40.170Z,98442.44
2022-11-23T13:06:08.785Z,98446.69
2022-11-23T13:09:03.965Z,98450.75
2022-11-23T13:12:16.158Z,98449.00
2022-11-23T13:15:08.824Z,98455.84
2022-11-23T13:18:19.812Z,98455.94
2022-11-23T13:21:22.266Z,98460.91
2022-11-23T13:24:34.257Z,98455.81
2022-11-23T13:27:15.848Z,98458.53
2022-11-23T13:29:52.403Z,98462.84
2022-11-23T13:32:53.912Z,98459.13
2022-11-23T13:35:30.214Z,98459.19
2022-11-23T13:38:02.845Z,98457.84
2022-11-23T13:40:34.859Z,98462.84
2022-11-23T13:43:17.035Z,98465.97
2022-11-23T13:46:18.056Z,98466.22
2022-11-23T13:48:56.775Z,98465.62
2022-11-23T13:51:37.636Z,98462.88
2022-11-23T13:54:26.762Z,98463.91
2022-11-23T13:57:03.058Z,98467.63
2022-11-23T13:59:36.910Z,98463.31
2022-11-23T14:02:07.594Z,98462.56
2022-11-23T14:04:44.027Z,98468.66
2022-11-23T14:07:29.153Z,98465.66
2022-11-23T14:10:26.802Z,98467.53
2022-11-23T14:13:21.865Z,98470.81
2022-11-23T14:16:41.433Z,98482.72
2022-11-23T14:19:16.161Z,98470.91
2022-11-23T14:22:17.764Z,98483.72
2022-11-23T14:25:19.058Z,98476.44
2022-11-23T14:28:10.971Z,98477.47
2022-11-23T14:31:00.898Z,98476.09
2022-11-23T14:33:30.822Z,98480.44
2022-11-23T14:36:09.947Z,98474.50
2022-11-23T14:39:08.793Z,98475.44
2022-11-23T14:41:45.178Z,98490.75
2022-11-23T14:44:34.149Z,98491.75
2022-11-23T14:47:10.171Z,98493.06
2022-11-23T14:49:51.029Z,98492.87
2022-11-23T14:52:26.876Z,98492.78
2022-11-23T14:55:04.796Z,98493.97
2022-11-23T14:57:47.375Z,98492.47
2022-11-23T15:00:27.993Z,98484.59
2022-11-23T15:03:42.740Z,98486.94
2022-11-23T15:06:18.030Z,98499.69
2022-11-23T15:09:07.895Z,98498.91
2022-11-23T15:11:43.682Z,98508.38
2022-11-23T15:14:26.778Z,98498.78
2022-11-23T15:16:59.877Z,98511.06
2022-11-23T15:19:29.993Z,98514.53
2022-11-23T15:22:16.915Z,98508.00
2022-11-23T15:24:48.002Z,98524.75
2022-11-23T15:27:29.781Z,98512.63
2022-11-23T15:30:06.090Z,98524.38
2022-11-23T15:32:54.763Z,98516.78
2022-11-23T15:35:39.904Z,98519.53
2022-11-23T15:38:26.775Z,98524.81
2022-11-23T15:41:05.403Z,98522.41
2022-11-23T15:43:35.626Z,98532.94
2022-11-23T15:46:18.790Z,98530.53
2022-11-23T15:48:51.836Z,98533.66
2022-11-23T15:54:22.575Z,98536.91
2022-11-23T15:56:59.760Z,98548.31
2022-11-23T16:02:26.460Z,98552.72
2022-11-23T16:05:18.921Z,98557.25
2022-11-23T16:08:02.371Z,98549.72
2022-11-23T16:10:35.534Z,98561.97
2022-11-23T16:13:16.267Z,98557.22
2022-11-23T16:16:00.759Z,98562.13
2022-11-23T16:18:34.290Z,98574.94
2022-11-23T16:21:11.207Z,98570.03
2022-11-23T16:23:52.736Z,98574.56
2022-11-23T16:26:29.177Z,98578.16
2022-11-23T16:29:13.674Z,98574.03
2022-11-23T16:31:56.418Z,98577.19
2022-11-23T16:37:10.856Z,98583.37
2022-11-23T16:39:40.152Z,98577.28
2022-11-23T16:44:56.366Z,98578.00
2022-11-23T16:47:31.912Z,98579.47
2022-11-23T16:50:02.797Z,98582.22
2022-11-23T16:52:32.190Z,98582.50
2022-11-23T16:55:00.403Z,98573.06
2022-11-23T16:57:37.997Z,98581.03
2022-11-23T17:00:16.187Z,98573.00
2022-11-23T17:02:44.609Z,98579.22
2022-11-23T17:05:20.973Z,98581.47
2022-11-23T17:07:49.896Z,98587.91
2022-11-23T17:10:22.798Z,98584.13
2022-11-23T17:12:55.138Z,98579.91
2022-11-23T17:15:31.995Z,98586.22
2022-11-23T17:18:14.279Z,98587.81
2022-11-23T17:20:42.546Z,98582.81
2022-11-23T17:23:24.111Z,98582.91
2022-11-23T17:25:56.594Z,98588.59
2022-11-23T17:28:30.861Z,98590.87
2022-11-23T17:31:01.965Z,98596.53
2022-11-23T17:36:10.155Z,98591.34
2022-11-23T17:38:40.044Z,98590.59
2022-11-23T17:41:11.149Z,98592.69
2022-11-23T17:43:41.467Z,98589.28
2022-11-23T17:46:24.354Z,98588.25
2022-11-23T17:49:02.634Z,98589.63
2022-11-23T17:51:33.159Z,98595.34
2022-11-23T17:54:10.732Z,98593.25
2022-11-23T17:56:48.897Z,98595.34
2022-11-23T18:01:56.804Z,98597.41
2022-11-23T18:04:25.592Z,98598.87
2022-11-23T18:06:57.004Z,98597.06
2022-11-23T18:09:29.926Z,98602.22
2022-11-23T18:12:04.755Z,98606.25
2022-11-23T18:14:33.769Z,98606.19
2022-11-23T18:17:04.977Z,98601.81
2022-11-23T18:19:41.487Z,98602.59
2022-11-23T18:22:12.085Z,98598.50
2022-11-23T18:24:41.055Z,98601.47
2022-11-23T18:30:16.270Z,98602.50
2022-11-23T18:33:00.842Z,98598.34
2022-11-23T18:35:45.449Z,98604.03
2022-11-23T18:38:50.987Z,98601.75
2022-11-23T18:41:32.747Z,98608.25
2022-11-23T18:47:59.745Z,98606.13
2022-11-23T18:53:37.130Z,98613.19
2022-11-23T18:56:25.100Z,98615.78
2022-11-23T18:59:08.094Z,98617.00
2022-11-23T19:01:55.912Z,98610.25
2022-11-23T19:04:41.846Z,98618.09
2022-11-23T19:07:20.924Z,98613.09
2022-11-23T19:10:05.084Z,98618.38
2022-11-23T19:13:05.139Z,98619.31
2022-11-23T19:15:43.171Z,98627.00
2022-11-23T19:18:35.718Z,98626.47
2022-11-23T19:21:23.915Z,98625.16
2022-11-23T19:26:50.857Z,98627.22
2022-11-23T19:29:40.199Z,98623.09
2022-11-23T19:32:43.028Z,98640.06
2022-11-23T19:35:27.145Z,98632.38
2022-11-23T19:38:11.836Z,98629.94
2022-11-23T19:41:01.958Z,98631.81
2022-11-23T19:46:49.160Z,98640.97
2022-11-23T19:49:37.783Z,98640.53
2022-11-23T19:53:03.434Z,98645.13
2022-11-23T19:55:18.061Z,98647.88
2022-11-23T19:58:01.904Z,98651.72
2022-11-23T20:00:49.785Z,98647.75
2022-11-23T20:03:51.776Z,98656.84
2022-11-23T20:06:25.186Z,98653.25
2022-11-23T20:09:35.875Z,98652.03
2022-11-23T20:12:30.726Z,98658.63
2022-11-23T20:15:33.758Z,98656.00
2022-11-23T20:18:17.836Z,98653.25
2022-11-23T20:25:00.861Z,98665.25
2022-11-23T20:27:59.197Z,98672.81
2022-11-23T20:30:56.911Z,98671.31
2022-11-23T20:36:20.999Z,98677.44
2022-11-23T20:39:29.088Z,98676.16
2022-11-23T20:41:59.322Z,98676.75
2022-11-23T20:44:37.775Z,98675.06
2022-11-23T20:47:07.875Z,98683.63
2022-11-23T20:49:46.092Z,98684.00
2022-11-23T20:52:15.936Z,98691.31
2022-11-23T20:54:55.783Z,98694.59
2022-11-23T20:57:28.828Z,98702.06
2022-11-23T20:59:59.382Z,98702.50
2022-11-23T21:02:33.058Z,98700.44
2022-11-23T21:05:11.767Z,98696.28
2022-11-23T21:07:54.935Z,98697.97
2022-11-23T21:10:56.796Z,98707.00
2022-11-23T21:13:52.019Z,98701.03
2022-11-23T21:16:28.117Z,98701.91
2022-11-23T21:18:58.254Z,98700.19
2022-11-23T21:21:43.704Z,98704.25
2022-11-23T21:24:18.716Z,98708.53
2022-11-23T21:26:48.693Z,98705.97
2022-11-23T21:29:30.773Z,98710.31
2022-11-23T21:32:00.877Z,98702.41
2022-11-23T21:34:41.140Z,98713.63
2022-11-23T21:37:11.512Z,98715.50
2022-11-23T21:39:41.613Z,98714.47
2022-11-23T21:42:11.926Z,98712.53
2022-11-23T21:44:52.581Z,98715.69
2022-11-23T21:47:25.706Z,98709.03
2022-11-23T21:49:56.034Z,98714.13
2022-11-23T21:52:25.979Z,98718.72
2022-11-23T21:55:15.748Z,98722.81
2022-11-23T21:57:49.997Z,98718.72
2022-11-23T22:00:37.621Z,98726.38
2022-11-23T22:03:06.647Z,98725.84
2022-11-23T22:05:57.101Z,98730.63
2022-11-23T22:08:53.955Z,98730.84
2022-11-23T22:11:25.195Z,98738.16
2022-11-23T22:13:57.642Z,98732.66
2022-11-23T22:16:30.799Z,98732.31
2022-11-23T22:18:59.951Z,98730.16
2022-11-23T22:21:30.895Z,98725.50
2022-11-23T22:24:00.064Z,98728.84
2022-11-23T22:26:28.929Z,98731.38
2022-11-23T22:29:02.443Z,98727.41
2022-11-23T22:31:34.895Z,98731.13
2022-11-23T22:34:23.751Z,98733.75
2022-11-23T22:37:10.647Z,98730.09
2022-11-23T22:44:15.565Z,98741.44
2022-11-23T22:46:57.948Z,98736.91
2022-11-23T22:49:43.398Z,98739.81
2022-11-23T22:52:26.379Z,98734.88
2022-11-23T22:55:21.752Z,98746.00
2022-11-23T22:58:05.971Z,98741.34
2022-11-23T23:00:49.338Z,98746.25
2022-11-23T23:03:32.074Z,98747.22
2022-11-23T23:06:17.820Z,98753.88
2022-11-23T23:09:01.426Z,98756.63
2022-11-23T23:11:44.094Z,98756.94
2022-11-23T23:14:28.113Z,98759.69
2022-11-23T23:17:15.346Z,98758.69
2022-11-23T23:19:58.088Z,98771.31
2022-11-23T23:22:41.099Z,98766.34
2022-11-23T23:25:23.803Z,98766.81
2022-11-23T23:28:07.083Z,98776.28
2022-11-23T23:30:49.710Z,98774.34
2022-11-23T23:33:19.277Z,98766.31
2022-11-23T23:35:46.940Z,98775.31
2022-11-23T23:38:14.494Z,98776.25
2022-11-23T23:40:43.160Z,98782.94
2022-11-23T23:43:10.976Z,98780.56
2022-11-23T23:46:07.848Z,98775.28
2022-11-23T23:48:50.874Z,98787.72
2022-11-23T23:51:36.372Z,98788.16
2022-11-23T23:54:18.839Z,98793.09
2022-11-23T23:57:32.539Z,98794.50
